Time;durP1;ratioP1;P1;durP2;ratioP2;P2;SDS_P1;SDS_P2;PMS_P1;PMS_P2;Temp;Humidity;BMP_temperature;BMP_pressure;BME280_temperature;BME280_humidity;BME280_pressure;Samples;Min_cycle;Max_cycle;Signal;HPM_P1;HPM_P2
2022/10/21 00:01:29;;;;;;;13.68;4.53;;;20.70;99.90;;;;;;4971609;28;20196;-76
2022/10/21 00:04:02;;;;;;;12.60;5.20;;;20.70;99.90;;;;;;4971400;28;20203;-73
2022/10/21 00:06:35;;;;;;;12.63;5.30;;;20.70;99.90;;;;;;4973599;28;20199;-75
2022/10/21 00:09:06;;;;;;;13.25;5.30;;;20.80;99.90;;;;;;4973084;28;20201;-74
2022/10/21 00:11:37;;;;;;;20.33;5.63;;;20.80;99.90;;;;;;4972685;28;20220;-75
2022/10/21 00:14:07;;;;;;;16.95;5.75;;;20.90;99.90;;;;;;4972447;28;20197;-76
2022/10/21 00:16:38;;;;;;;12.85;5.40;;;21.00;99.90;;;;;;4972904;28;20200;-74
2022/10/21 00:19:10;;;;;;;13.02;5.38;;;21.00;99.90;;;;;;4973595;28;20212;-75
2022/10/21 00:21:43;;;;;;;12.70;4.97;;;21.10;99.90;;;;;;4973416;28;20208;-73
2022/10/21 00:24:14;;;;;;;14.07;5.03;;;21.10;99.90;;;;;;4974068;28;20243;-76
2022/10/21 00:26:44;;;;;;;15.02;5.03;;;21.10;99.90;;;;;;4972800;28;20199;-75
2022/10/21 00:29:15;;;;;;;13.68;4.75;;;21.10;99.90;;;;;;4973898;28;20192;-75
2022/10/21 00:31:46;;;;;;;10.80;4.65;;;21.20;99.90;;;;;;4970752;28;20275;-75
2022/10/21 00:34:17;;;;;;;17.48;4.90;;;21.30;99.90;;;;;;4969341;28;20226;-74
2022/10/21 00:36:50;;;;;;;16.35;5.15;;;21.50;99.90;;;;;;4971496;28;20204;-76
2022/10/21 00:39:21;;;;;;;11.75;4.93;;;21.70;99.90;;;;;;4971347;28;20279;-75
2022/10/21 00:41:52;;;;;;;9.70;4.75;;;22.00;99.90;;;;;;4971538;28;20702;-77
2022/10/21 00:44:23;;;;;;;13.80;5.05;;;22.20;99.90;;;;;;4970789;28;20206;-76
2022/10/21 00:46:57;;;;;;;9.65;4.38;;;22.40;99.90;;;;;;4971185;28;20578;-76
2022/10/21 00:49:36;;;;;;;9.02;4.82;;;22.50;99.90;;;;;;4972869;28;20198;-75
2022/10/21 00:52:13;;;;;;;10.45;4.53;;;22.40;99.90;;;;;;4973884;28;20199;-72
2022/10/21 00:54:46;;;;;;;11.93;4.85;;;22.40;99.90;;;;;;4975601;28;20210;-76
2022/10/21 00:57:18;;;;;;;12.73;4.78;;;22.20;99.90;;;;;;4977217;28;20195;-77
2022/10/21 00:59:53;;;;;;;10.65;4.38;;;22.10;99.90;;;;;;4975216;28;20674;-76
2022/10/21 01:02:24;;;;;;;14.95;4.90;;;22.10;99.90;;;;;;4977119;28;20657;-74
2022/10/21 01:04:58;;;;;;;13.27;4.93;;;22.10;99.90;;;;;;4976163;28;20203;-74
2022/10/21 01:07:31;;;;;;;12.27;4.50;;;22.10;99.90;;;;;;4974813;28;20188;-74
2022/10/21 01:10:02;;;;;;;12.40;5.10;;;22.10;99.90;;;;;;4974101;28;20204;-74
2022/10/21 01:12:40;;;;;;;13.63;4.68;;;22.00;99.90;;;;;;4975453;28;20216;-75
2022/10/21 01:15:18;;;;;;;10.38;5.18;;;22.00;99.90;;;;;;4975175;28;20193;-74
2022/10/21 01:17:56;;;;;;;23.67;13.52;;;22.00;99.90;;;;;;4972827;28;20192;-77
2022/10/21 01:21:04;;;;;;;13.48;5.30;;;21.80;99.90;;;;;;4972918;28;20222;-78
2022/10/21 01:24:02;;;;;;;12.27;5.30;;;21.80;99.90;;;;;;4963999;28;20214;-75
2022/10/21 01:27:18;;;;;;;12.75;5.00;;;21.70;99.90;;;;;;4973531;28;20287;-76
2022/10/21 01:30:16;;;;;;;12.40;5.10;;;21.70;99.90;;;;;;4951890;28;20200;-72
2022/10/21 01:33:26;;;;;;;12.75;5.35;;;21.70;99.90;;;;;;4976162;28;20199;-75
2022/10/21 01:36:09;;;;;;;12.88;4.90;;;21.70;99.90;;;;;;4924703;28;20674;-73
2022/10/21 01:38:45;;;;;;;11.68;5.15;;;21.80;99.90;;;;;;4970796;28;20251;-76
2022/10/21 01:41:20;;;;;;;10.75;4.93;;;21.80;99.90;;;;;;4969968;28;20202;-77
2022/10/21 01:43:59;;;;;;;11.38;5.57;;;21.80;99.90;;;;;;4980698;28;20207;-76
2022/10/21 01:46:33;;;;;;;15.55;5.28;;;21.90;99.90;;;;;;4977764;28;20198;-75
2022/10/21 01:49:07;;;;;;;13.25;4.82;;;22.00;99.90;;;;;;4975696;28;20199;-74
2022/10/21 01:51:41;;;;;;;12.57;4.47;;;22.10;99.90;;;;;;4972328;28;20201;-77
2022/10/21 01:54:17;;;;;;;13.82;4.60;;;22.00;99.90;;;;;;4973569;28;20199;-77
2022/10/21 01:56:50;;;;;;;9.95;4.30;;;22.10;99.90;;;;;;4974373;28;20203;-78
2022/10/21 01:59:23;;;;;;;30.98;17.63;;;22.30;99.90;;;;;;4977181;28;20605;-79
2022/10/21 02:01:55;;;;;;;14.43;5.60;;;22.40;99.90;;;;;;4974087;28;20202;-80
2022/10/21 02:04:28;;;;;;;12.15;4.82;;;22.50;99.90;;;;;;4990668;28;20200;-77
2022/10/21 02:07:00;;;;;;;15.25;4.45;;;22.50;99.90;;;;;;4983070;28;20196;-78
2022/10/21 02:09:32;;;;;;;16.42;5.45;;;22.60;99.90;;;;;;4957581;29;20641;-78
2022/10/21 02:12:04;;;;;;;11.55;4.15;;;22.70;99.90;;;;;;4970465;28;20262;-77
2022/10/21 02:14:40;;;;;;;9.77;3.85;;;22.80;99.90;;;;;;4957489;29;20198;-77
2022/10/21 02:17:15;;;;;;;13.93;4.20;;;22.80;99.90;;;;;;4959785;28;20222;-76
2022/10/21 02:19:46;;;;;;;12.27;4.00;;;22.80;99.90;;;;;;4972032;28;20227;-76
2022/10/21 02:22:23;;;;;;;6.75;3.85;;;22.80;99.90;;;;;;4983201;28;20267;-79
2022/10/21 02:24:58;;;;;;;8.05;3.83;;;22.80;99.90;;;;;;4958637;28;20196;-76
2022/10/21 02:27:29;;;;;;;9.02;3.90;;;22.80;99.90;;;;;;4970350;28;20204;-78
2022/10/21 02:30:02;;;;;;;10.52;4.38;;;22.80;99.90;;;;;;4972514;28;20207;-77
2022/10/21 02:32:38;;;;;;;11.30;4.03;;;22.80;99.90;;;;;;4974303;28;20576;-76
2022/10/21 02:35:23;;;;;;;10.90;3.90;;;22.90;99.90;;;;;;4976419;28;20192;-78
2022/10/21 02:38:02;;;;;;;11.40;4.05;;;23.00;99.90;;;;;;4980038;28;20238;-74
2022/10/21 02:40:38;;;;;;;8.98;3.83;;;23.10;99.90;;;;;;4957461;28;20216;-78
2022/10/21 02:43:13;;;;;;;7.38;3.42;;;23.20;99.90;;;;;;4965567;28;20200;-77
2022/10/21 02:45:47;;;;;;;11.25;3.78;;;23.30;99.90;;;;;;4977222;28;20199;-78
2022/10/21 02:48:18;;;;;;;7.90;3.08;;;23.30;99.90;;;;;;4982390;28;20659;-76
2022/10/21 02:50:49;;;;;;;7.75;3.90;;;23.30;99.90;;;;;;4970646;28;20215;-76
2022/10/21 02:53:22;;;;;;;11.90;4.18;;;23.30;99.90;;;;;;4973337;28;20215;-78
2022/10/21 02:55:53;;;;;;;14.18;3.42;;;23.20;99.90;;;;;;4956606;29;20446;-78
2022/10/21 02:58:24;;;;;;;12.57;3.25;;;23.10;99.90;;;;;;4974525;28;20691;-78
2022/10/21 03:00:55;;;;;;;11.75;3.30;;;23.00;99.90;;;;;;4975795;28;20188;-77
2022/10/21 03:03:26;;;;;;;12.10;3.15;;;22.90;99.90;;;;;;4975047;28;20208;-78
2022/10/21 03:05:57;;;;;;;7.35;2.47;;;22.80;99.90;;;;;;4975834;28;20196;-77
2022/10/21 03:08:30;;;;;;;7.05;2.33;;;22.70;99.90;;;;;;4964707;28;20553;-80
2022/10/21 03:11:01;;;;;;;11.57;2.70;;;22.50;99.90;;;;;;4962229;28;20227;-80
2022/10/21 03:13:32;;;;;;;8.27;2.55;;;22.30;99.90;;;;;;4974151;28;20200;-80
2022/10/21 03:16:03;;;;;;;10.25;3.03;;;22.10;99.90;;;;;;4974429;28;20212;-77
2022/10/21 03:18:34;;;;;;;9.18;3.00;;;22.10;99.90;;;;;;4970731;28;20691;-76
2022/10/21 03:21:05;;;;;;;11.85;2.72;;;22.00;99.90;;;;;;4973710;28;20204;-76
2022/10/21 03:23:37;;;;;;;8.15;2.65;;;21.80;99.90;;;;;;4975555;28;20203;-76
2022/10/21 03:26:09;;;;;;;10.10;3.00;;;21.60;99.90;;;;;;4974716;28;20210;-76
2022/10/21 03:28:40;;;;;;;10.02;2.83;;;21.50;99.90;;;;;;4975284;28;20196;-74
2022/10/21 03:31:11;;;;;;;10.50;2.80;;;21.50;99.90;;;;;;4972572;28;20200;-79
2022/10/21 03:33:42;;;;;;;11.68;2.50;;;21.40;99.90;;;;;;4967420;28;20211;-75
2022/10/21 03:36:13;;;;;;;9.13;2.40;;;21.30;99.90;;;;;;4975054;28;20644;-75
2022/10/21 03:38:45;;;;;;;8.30;2.15;;;21.40;99.90;;;;;;4973011;28;20251;-74
2022/10/21 03:41:16;;;;;;;7.32;1.90;;;21.40;99.90;;;;;;4975055;28;20203;-75
2022/10/21 03:43:47;;;;;;;6.93;1.75;;;21.30;99.90;;;;;;4973547;28;20211;-78
2022/10/21 03:46:18;;;;;;;5.22;2.10;;;21.40;99.90;;;;;;4975034;28;20644;-78
2022/10/21 03:48:49;;;;;;;7.95;1.45;;;21.40;99.90;;;;;;4974197;28;20204;-77
2022/10/21 03:51:20;;;;;;;7.07;1.65;;;21.50;99.90;;;;;;4974892;28;20218;-75
2022/10/21 03:53:53;;;;;;;5.68;1.60;;;21.50;99.90;;;;;;4961551;28;20232;-76
2022/10/21 03:56:24;;;;;;;6.63;1.60;;;21.60;99.90;;;;;;4955463;29;20205;-74
2022/10/21 03:58:54;;;;;;;6.47;1.30;;;21.70;99.90;;;;;;4967673;28;20211;-76
2022/10/21 04:01:25;;;;;;;5.93;1.20;;;21.70;99.90;;;;;;4974828;28;20570;-74
2022/10/21 04:03:56;;;;;;;3.95;1.20;;;21.70;99.90;;;;;;4973870;28;20228;-73
2022/10/21 04:06:27;;;;;;;4.60;1.25;;;21.80;99.90;;;;;;4974693;28;20193;-76
2022/10/21 04:09:00;;;;;;;2.97;1.10;;;21.90;99.90;;;;;;4974185;28;20671;-73
2022/10/21 04:11:31;;;;;;;4.53;1.20;;;21.80;99.90;;;;;;4972350;28;20235;-77
2022/10/21 04:14:02;;;;;;;3.25;1.30;;;21.90;99.90;;;;;;4973415;28;20206;-76
2022/10/21 04:16:33;;;;;;;5.00;1.30;;;21.90;99.90;;;;;;4972113;28;20201;-76
2022/10/21 04:19:04;;;;;;;5.18;1.88;;;21.90;99.90;;;;;;4974739;28;20223;-75
2022/10/21 04:21:35;;;;;;;4.47;1.30;;;21.90;99.90;;;;;;4969475;28;20203;-77
2022/10/21 04:24:08;;;;;;;5.22;1.27;;;22.00;99.90;;;;;;4971761;28;20207;-75
2022/10/21 04:26:40;;;;;;;3.28;1.20;;;22.00;99.90;;;;;;4973064;28;20204;-73
2022/10/21 04:29:11;;;;;;;3.80;1.38;;;22.10;99.90;;;;;;4972965;28;20267;-77
2022/10/21 04:31:42;;;;;;;8.05;1.67;;;22.10;99.90;;;;;;4971842;28;20208;-73
2022/10/21 04:34:14;;;;;;;7.93;1.50;;;22.30;99.90;;;;;;4973045;28;20200;-76
2022/10/21 04:36:45;;;;;;;5.82;1.58;;;22.60;99.90;;;;;;4973013;28;20208;-76
2022/10/21 04:39:18;;;;;;;5.22;1.40;;;22.60;99.90;;;;;;4970884;28;20575;-75
2022/10/21 04:41:51;;;;;;;6.00;1.38;;;22.80;99.90;;;;;;4968463;28;20682;-75
2022/10/21 04:44:22;;;;;;;5.20;1.42;;;23.00;99.90;;;;;;4974456;28;20196;-75
2022/10/21 04:46:54;;;;;;;3.90;1.40;;;23.10;99.90;;;;;;4975017;28;20210;-75
2022/10/21 04:49:25;;;;;;;6.25;1.20;;;23.30;99.90;;;;;;4974363;28;20204;-76
2022/10/21 04:51:55;;;;;;;3.55;1.27;;;23.40;99.90;;;;;;4970296;28;20567;-78
2022/10/21 04:54:28;;;;;;;8.30;1.63;;;23.40;99.90;;;;;;4966008;28;20201;-76
2022/10/21 04:56:59;;;;;;;5.40;1.48;;;23.40;99.90;;;;;;4981851;28;20576;-80
2022/10/21 04:59:30;;;;;;;7.10;1.67;;;23.40;99.90;;;;;;4968838;28;20576;-73
2022/10/21 05:02:01;;;;;;;9.07;1.90;;;23.40;99.90;;;;;;4970312;28;20290;-78
2022/10/21 05:04:31;;;;;;;5.22;1.58;;;23.50;99.90;;;;;;4965417;28;20196;-76
2022/10/21 05:07:02;;;;;;;7.72;1.95;;;23.40;99.90;;;;;;4973695;28;20218;-76
2022/10/21 05:09:36;;;;;;;7.70;1.83;;;23.30;99.90;;;;;;4966124;28;20680;-77
2022/10/21 05:12:07;;;;;;;8.32;1.80;;;23.10;99.90;;;;;;4973127;28;20224;-78
2022/10/21 05:14:38;;;;;;;5.47;1.35;;;23.00;99.90;;;;;;4989041;28;20203;-76
2022/10/21 05:17:09;;;;;;;8.55;1.67;;;22.90;99.90;;;;;;4973976;28;20707;-71
2022/10/21 05:19:40;;;;;;;5.93;1.40;;;22.90;99.90;;;;;;4954793;29;20221;-78
2022/10/21 05:22:11;;;;;;;6.15;1.35;;;22.90;99.90;;;;;;4954282;28;20197;-75
2022/10/21 05:24:43;;;;;;;4.35;1.40;;;22.90;99.90;;;;;;4973915;28;20189;-72
2022/10/21 05:27:14;;;;;;;9.35;2.10;;;22.90;99.90;;;;;;4969490;28;20204;-73
2022/10/21 05:29:45;;;;;;;8.20;1.83;;;22.90;99.90;;;;;;4965587;28;20201;-78
2022/10/21 05:32:16;;;;;;;5.85;2.08;;;22.80;99.90;;;;;;4986223;28;20195;-76
2022/10/21 05:34:47;;;;;;;9.95;1.80;;;22.80;99.90;;;;;;4970280;28;20212;-79
2022/10/21 05:37:18;;;;;;;7.93;1.50;;;22.70;99.90;;;;;;4962360;28;20576;-80
2022/10/21 05:39:51;;;;;;;10.55;1.75;;;22.60;99.90;;;;;;4980847;28;20230;-78
2022/10/21 05:42:22;;;;;;;8.60;1.40;;;22.60;99.90;;;;;;4996932;28;20195;-78
2022/10/21 05:44:53;;;;;;;16.08;1.40;;;22.50;99.90;;;;;;4987778;28;20200;-82
2022/10/21 05:47:24;;;;;;;4.72;1.10;;;22.40;99.90;;;;;;4985352;28;20199;-80
2022/10/21 05:49:55;;;;;;;6.40;1.00;;;22.30;99.90;;;;;;4966554;28;20665;-81
2022/10/21 05:52:25;;;;;;;4.57;1.10;;;22.20;99.90;;;;;;4994193;28;20673;-81
2022/10/21 05:54:58;;;;;;;4.60;0.90;;;22.10;99.90;;;;;;4981748;28;20204;-78
2022/10/21 05:57:29;;;;;;;5.45;0.82;;;22.10;99.90;;;;;;4980598;28;20196;-81
2022/10/21 06:00:01;;;;;;;4.07;1.00;;;22.00;99.90;;;;;;4961076;28;20216;-72
2022/10/21 06:02:32;;;;;;;5.13;0.85;;;21.90;99.90;;;;;;4983152;28;20200;-79
2022/10/21 06:05:03;;;;;;;2.95;0.68;;;21.80;99.90;;;;;;4962554;28;20224;-77
2022/10/21 06:07:33;;;;;;;3.38;0.77;;;21.80;99.90;;;;;;4974777;28;20196;-76
2022/10/21 06:10:06;;;;;;;3.78;0.80;;;21.80;99.90;;;;;;4974213;28;20208;-75
2022/10/21 06:12:37;;;;;;;4.20;0.80;;;21.80;99.90;;;;;;4972169;28;20200;-78
2022/10/21 06:15:09;;;;;;;4.43;0.90;;;21.70;99.90;;;;;;4974278;28;20211;-77
2022/10/21 06:17:40;;;;;;;3.97;0.80;;;21.70;99.90;;;;;;4959497;28;20201;-77
2022/10/21 06:20:11;;;;;;;4.53;0.77;;;21.70;99.90;;;;;;4971508;28;20218;-75
2022/10/21 06:22:42;;;;;;;4.15;0.77;;;21.60;99.90;;;;;;4977237;28;20575;-77
2022/10/21 06:25:15;;;;;;;4.63;0.70;;;21.60;99.90;;;;;;4975351;28;20224;-73
2022/10/21 06:27:45;;;;;;;5.70;0.80;;;21.60;99.90;;;;;;4976724;28;20619;-80
2022/10/21 06:30:16;;;;;;;6.95;3.17;;;21.60;99.90;;;;;;4958042;28;20533;-75
2022/10/21 06:32:47;;;;;;;3.22;0.70;;;21.50;99.90;;;;;;4975269;28;20610;-77
2022/10/21 06:35:18;;;;;;;5.68;0.95;;;21.60;99.90;;;;;;4973166;28;20198;-70
2022/10/21 06:37:49;;;;;;;4.30;0.57;;;21.60;99.90;;;;;;4974037;28;20236;-79
2022/10/21 06:40:22;;;;;;;2.35;0.70;;;21.50;99.90;;;;;;4973765;28;20709;-77
2022/10/21 06:42:53;;;;;;;2.05;0.50;;;21.40;99.90;;;;;;4975036;28;20547;-77
2022/10/21 06:45:24;;;;;;;3.67;0.60;;;21.40;99.90;;;;;;4980407;28;20200;-76
2022/10/21 06:47:56;;;;;;;2.50;0.60;;;21.30;99.90;;;;;;4969166;28;20196;-72
2022/10/21 06:50:27;;;;;;;4.18;0.60;;;21.30;99.90;;;;;;4979342;28;20222;-72
2022/10/21 06:52:57;;;;;;;2.20;0.70;;;21.20;99.90;;;;;;4968570;28;20204;-80
2022/10/21 06:55:30;;;;;;;4.15;0.80;;;21.10;99.90;;;;;;4975744;28;20201;-77
2022/10/21 06:58:02;;;;;;;3.75;0.73;;;21.00;99.90;;;;;;4975267;28;20204;-78
2022/10/21 07:00:33;;;;;;;6.38;0.90;;;20.90;99.90;;;;;;4974944;28;20223;-74
2022/10/21 07:03:04;;;;;;;3.08;0.75;;;20.90;99.90;;;;;;4970259;28;20647;-73
2022/10/21 07:05:35;;;;;;;5.07;0.82;;;20.80;99.90;;;;;;4974372;28;20204;-71
2022/10/21 07:08:06;;;;;;;4.10;1.08;;;20.70;99.90;;;;;;4974094;28;20196;-74
2022/10/21 07:10:41;;;;;;;6.38;1.20;;;20.70;99.90;;;;;;4973481;28;20642;-76
2022/10/21 07:13:11;;;;;;;6.50;1.20;;;20.70;99.90;;;;;;4975055;28;20522;-74
2022/10/21 07:15:42;;;;;;;7.72;1.42;;;20.70;99.90;;;;;;4971719;28;20192;-77
2022/10/21 07:18:13;;;;;;;9.23;1.38;;;20.60;99.90;;;;;;4978742;28;20196;-73
2022/10/21 07:20:44;;;;;;;7.93;1.50;;;20.60;99.90;;;;;;4974866;28;20231;-74
2022/10/21 07:23:15;;;;;;;9.02;1.40;;;20.50;99.90;;;;;;4969407;28;20204;-75
2022/10/21 07:25:48;;;;;;;8.40;1.40;;;20.50;99.90;;;;;;4978830;28;20655;-75
2022/10/21 07:28:19;;;;;;;8.73;1.30;;;20.50;99.90;;;;;;4970190;28;20203;-76
2022/10/21 07:30:51;;;;;;;8.50;1.65;;;20.50;99.90;;;;;;4971475;28;20212;-77
2022/10/21 07:33:22;;;;;;;11.05;1.75;;;20.40;99.90;;;;;;4975111;28;20196;-75
2022/10/21 07:35:53;;;;;;;13.50;1.80;;;20.40;99.90;;;;;;4985570;28;20196;-78
2022/10/21 07:38:25;;;;;;;10.95;2.78;;;20.30;99.90;;;;;;4973230;28;20700;-77
2022/10/21 07:40:58;;;;;;;7.90;2.30;;;20.30;99.90;;;;;;4973312;28;20219;-77
2022/10/21 07:43:29;;;;;;;14.20;3.03;;;20.30;99.90;;;;;;4974037;28;20196;-77
2022/10/21 07:46:01;;;;;;;12.80;3.22;;;20.30;99.90;;;;;;4979773;28;20571;-81
2022/10/21 07:48:32;;;;;;;15.23;3.35;;;20.20;99.90;;;;;;4977864;28;20564;-79
2022/10/21 07:51:06;;;;;;;13.15;3.05;;;20.20;99.90;;;;;;4965908;28;20235;-78
2022/10/21 07:53:37;;;;;;;12.68;2.95;;;20.10;99.90;;;;;;4970630;28;20544;-82
2022/10/21 07:56:14;;;;;;;11.40;2.95;;;20.10;99.90;;;;;;4974066;28;20184;-76
2022/10/21 07:58:45;;;;;;;14.00;2.92;;;20.10;99.90;;;;;;4971979;28;20897;-76
2022/10/21 08:01:17;;;;;;;11.32;2.70;;;20.10;99.90;;;;;;4969506;28;20226;-82
2022/10/21 08:03:49;;;;;;;15.27;2.83;;;20.10;99.90;;;;;;4972959;28;20207;-75
2022/10/21 08:06:20;;;;;;;8.50;2.20;;;20.10;99.90;;;;;;4976872;28;20207;-77
2022/10/21 08:08:51;;;;;;;12.32;2.60;;;20.10;99.90;;;;;;4972131;28;20196;-77
2022/10/21 08:11:28;;;;;;;14.73;2.63;;;20.10;99.90;;;;;;4973796;28;20220;-78
2022/10/21 08:14:00;;;;;;;10.63;1.92;;;20.10;99.90;;;;;;4984510;28;20567;-78
2022/10/21 08:16:30;;;;;;;13.10;2.80;;;20.00;99.90;;;;;;4974695;28;20200;-79
2022/10/21 08:19:03;;;;;;;8.63;2.17;;;20.00;99.90;;;;;;4972057;28;20214;-78
2022/10/21 08:21:34;;;;;;;8.50;2.17;;;20.10;99.90;;;;;;4973116;28;20682;-76
2022/10/21 08:24:05;;;;;;;12.13;2.13;;;20.10;99.90;;;;;;4978264;28;20721;-75
2022/10/21 08:26:38;;;;;;;13.38;2.17;;;20.10;99.90;;;;;;4978254;28;20630;-72
2022/10/21 08:29:09;;;;;;;11.55;2.00;;;20.00;99.90;;;;;;4971994;28;20192;-77
2022/10/21 08:31:40;;;;;;;18.58;2.40;;;20.10;99.90;;;;;;4979007;28;20694;-73
2022/10/21 08:34:11;;;;;;;9.00;2.15;;;20.10;99.90;;;;;;4983013;28;20232;-73
2022/10/21 08:36:43;;;;;;;11.40;1.92;;;20.00;99.90;;;;;;4982895;28;20204;-76
2022/10/21 08:39:14;;;;;;;12.25;1.77;;;20.00;99.90;;;;;;4970117;28;20200;-75
2022/10/21 08:42:00;;;;;;;10.60;1.70;;;20.00;99.90;;;;;;4978540;28;20220;-71
2022/10/21 08:44:40;;;;;;;6.85;1.45;;;20.00;99.90;;;;;;4970688;28;20227;-73
2022/10/21 08:47:20;;;;;;;7.50;1.63;;;19.90;99.90;;;;;;4975595;28;20197;-77
2022/10/21 08:50:00;;;;;;;9.73;1.83;;;19.90;99.90;;;;;;4972462;28;20184;-79
2022/10/21 08:52:39;;;;;;;10.27;1.90;;;19.90;99.90;;;;;;4969469;28;20254;-75
2022/10/21 08:55:17;;;;;;;6.03;1.50;;;19.90;99.90;;;;;;4970004;28;20668;-75
2022/10/21 08:57:52;;;;;;;7.82;1.38;;;19.90;99.90;;;;;;4973311;28;20289;-76
2022/10/21 09:00:24;;;;;;;9.48;1.65;;;19.90;99.90;;;;;;4977567;28;20246;-75
2022/10/21 09:03:19;;;;;;;9.50;1.52;;;19.90;99.90;;;;;;4972748;28;20211;-73
2022/10/21 09:06:21;;;;;;;11.77;1.80;;;19.90;99.90;;;;;;4968532;28;20201;-72
2022/10/21 09:09:18;;;;;;;4.00;1.38;;;19.90;99.90;;;;;;4972851;28;20199;-74
2022/10/21 09:11:59;;;;;;;8.75;1.40;;;19.90;99.90;;;;;;4974940;28;20311;-74
2022/10/21 09:14:50;;;;;;;6.43;1.35;;;19.90;99.90;;;;;;4976555;28;20207;-77
2022/10/21 09:17:36;;;;;;;11.18;1.48;;;19.80;99.90;;;;;;4978411;28;20203;-74
2022/10/21 09:20:19;;;;;;;9.83;1.30;;;19.80;99.90;;;;;;4983847;28;20200;-76
2022/10/21 09:23:00;;;;;;;9.30;1.42;;;19.80;99.90;;;;;;4973901;28;20668;-79
2022/10/21 09:25:35;;;;;;;4.70;1.20;;;19.80;99.90;;;;;;4977483;28;20200;-76
2022/10/21 09:28:13;;;;;;;4.60;1.33;;;19.80;99.90;;;;;;4973064;28;20483;-74
2022/10/21 09:30:48;;;;;;;11.32;1.60;;;19.80;99.90;;;;;;4976404;28;20295;-77
2022/10/21 09:33:23;;;;;;;8.07;1.40;;;19.80;99.90;;;;;;4975197;28;20192;-73
2022/10/21 09:36:00;;;;;;;6.32;1.25;;;19.80;99.90;;;;;;4975516;28;20192;-78
2022/10/21 09:38:41;;;;;;;9.70;1.80;;;19.70;99.90;;;;;;4975944;28;20234;-78
2022/10/21 09:41:16;;;;;;;6.20;1.10;;;19.70;99.90;;;;;;4974179;28;20214;-79
2022/10/21 09:43:47;;;;;;;6.38;1.23;;;19.70;99.90;;;;;;4969606;28;20204;-80
2022/10/21 09:46:20;;;;;;;8.10;1.30;;;19.70;99.90;;;;;;4978185;28;20196;-78
2022/10/21 09:48:54;;;;;;;6.50;1.50;;;19.70;99.90;;;;;;4978627;28;20204;-77
2022/10/21 09:51:28;;;;;;;8.13;1.30;;;19.70;99.90;;;;;;4977916;28;20196;-78
2022/10/21 09:54:00;;;;;;;5.13;0.98;;;19.70;99.90;;;;;;4978807;28;20199;-79
2022/10/21 09:56:37;;;;;;;6.35;1.13;;;19.70;99.90;;;;;;4972440;28;20275;-78
2022/10/21 09:59:10;;;;;;;3.85;1.00;;;19.70;99.90;;;;;;4978801;28;20195;-78
2022/10/21 10:01:44;;;;;;;6.10;1.35;;;19.70;99.90;;;;;;4974672;28;20224;-78
2022/10/21 10:04:22;;;;;;;6.65;1.40;;;19.70;99.90;;;;;;4976209;28;20184;-76
2022/10/21 10:06:53;;;;;;;7.65;1.45;;;19.70;99.90;;;;;;4975260;28;20671;-74
2022/10/21 10:09:30;;;;;;;4.90;1.17;;;19.60;99.90;;;;;;4976864;28;20548;-75
2022/10/21 10:12:04;;;;;;;7.38;1.42;;;19.70;99.90;;;;;;4975610;28;20226;-76
2022/10/21 10:14:37;;;;;;;6.35;1.30;;;19.60;99.90;;;;;;4974276;28;20195;-75
2022/10/21 10:17:30;;;;;;;7.15;1.40;;;19.60;99.90;;;;;;4980197;28;20196;-73
2022/10/21 10:20:16;;;;;;;7.97;1.27;;;19.60;99.90;;;;;;4977012;28;20196;-73
2022/10/21 10:23:09;;;;;;;8.45;1.70;;;19.60;99.90;;;;;;4973627;28;20224;-78
2022/10/21 10:25:41;;;;;;;6.43;1.50;;;19.50;99.90;;;;;;4975410;28;20564;-78
2022/10/21 10:28:24;;;;;;;9.55;1.75;;;19.50;99.90;;;;;;4973198;28;20200;-78
2022/10/21 10:30:58;;;;;;;6.07;1.38;;;19.50;99.90;;;;;;4974226;28;20303;-76
2022/10/21 10:33:33;;;;;;;6.22;1.58;;;19.60;99.90;;;;;;4974920;28;20203;-75
2022/10/21 10:36:06;;;;;;;10.25;1.50;;;19.50;99.90;;;;;;4979712;28;20200;-75
2022/10/21 10:38:40;;;;;;;8.27;1.42;;;19.50;99.90;;;;;;4979326;28;20243;-80
2022/10/21 10:41:13;;;;;;;9.13;1.50;;;19.50;99.90;;;;;;4976027;28;20214;-77
2022/10/21 10:43:48;;;;;;;8.93;1.73;;;19.50;99.90;;;;;;4977366;28;20200;-75
2022/10/21 10:46:25;;;;;;;9.95;1.90;;;19.40;99.90;;;;;;4977363;28;20606;-75
2022/10/21 10:49:00;;;;;;;12.70;1.98;;;19.50;99.90;;;;;;4982130;28;20223;-79
2022/10/21 10:51:33;;;;;;;13.07;2.42;;;19.40;99.90;;;;;;4972055;28;20235;-76
2022/10/21 10:54:17;;;;;;;18.35;3.28;;;19.40;99.90;;;;;;4975840;28;20184;-79
2022/10/21 10:56:53;;;;;;;13.82;2.22;;;19.40;99.90;;;;;;4977258;28;20200;-75
2022/10/21 10:59:32;;;;;;;13.48;2.20;;;19.30;99.90;;;;;;4974825;28;20202;-79
2022/10/21 11:02:20;;;;;;;11.38;2.03;;;19.30;99.90;;;;;;4981658;28;20226;-73
2022/10/21 11:05:22;;;;;;;14.32;2.22;;;19.30;99.90;;;;;;4976829;28;20203;-73
2022/10/21 11:07:54;;;;;;;14.05;2.20;;;19.30;99.90;;;;;;4968193;28;20204;-76
2022/10/21 11:10:38;;;;;;;13.82;2.72;;;19.30;99.90;;;;;;4973554;28;20815;-77
2022/10/21 11:13:14;;;;;;;10.63;2.22;;;19.30;99.90;;;;;;4971966;28;20204;-76
2022/10/21 11:16:10;;;;;;;14.70;2.78;;;19.20;99.90;;;;;;4980378;28;20568;-78
2022/10/21 11:18:48;;;;;;;15.95;2.58;;;19.20;99.90;;;;;;4973128;28;20212;-76
2022/10/21 11:21:39;;;;;;;17.00;2.92;;;19.20;99.90;;;;;;4979901;28;20212;-77
2022/10/21 11:24:33;;;;;;;16.75;3.08;;;19.20;99.90;;;;;;4979316;28;20203;-76
2022/10/21 11:27:08;;;;;;;17.50;3.22;;;19.20;99.90;;;;;;4972345;28;20559;-77
2022/10/21 11:29:46;;;;;;;12.43;3.33;;;19.20;99.90;;;;;;4978525;28;20566;-75
2022/10/21 11:32:32;;;;;;;16.33;3.20;;;19.10;99.90;;;;;;4973080;28;20224;-79
2022/10/21 11:35:17;;;;;;;20.75;3.25;;;19.10;99.90;;;;;;4969625;28;20199;-76
2022/10/21 11:38:05;;;;;;;20.33;3.33;;;19.20;99.90;;;;;;4973586;28;20232;-79
2022/10/21 11:40:41;;;;;;;14.07;2.80;;;19.10;99.90;;;;;;4979425;28;20211;-76
2022/10/21 11:43:27;;;;;;;18.58;3.28;;;19.20;99.90;;;;;;4969431;28;20212;-77
2022/10/21 11:46:05;;;;;;;19.00;3.63;;;19.20;99.90;;;;;;4971263;28;20211;-77
2022/10/21 11:48:54;;;;;;;21.40;3.63;;;19.20;99.90;;;;;;4971665;28;20203;-75
2022/10/21 11:51:35;;;;;;;18.50;3.40;;;19.10;99.90;;;;;;4975403;28;20199;-76
2022/10/21 11:54:34;;;;;;;20.83;3.00;;;19.20;99.90;;;;;;4977173;28;20220;-76
2022/10/21 11:57:11;;;;;;;14.27;2.92;;;19.10;99.90;;;;;;4970237;28;20823;-76
2022/10/21 11:59:54;;;;;;;18.40;3.45;;;19.10;99.90;;;;;;4972707;28;20995;-77
2022/10/21 12:02:38;;;;;;;14.70;3.05;;;19.10;99.90;;;;;;4974528;28;20211;-74
2022/10/21 12:05:19;;;;;;;15.55;3.05;;;19.10;99.90;;;;;;4966360;28;20217;-76
2022/10/21 12:08:15;;;;;;;14.77;3.40;;;19.10;99.90;;;;;;4973988;28;20196;-77
2022/10/21 12:10:54;;;;;;;12.82;2.60;;;19.10;99.90;;;;;;4969577;28;20609;-77
2022/10/21 12:13:29;;;;;;;13.55;2.80;;;19.10;99.90;;;;;;4972582;28;20196;-77
2022/10/21 12:16:02;;;;;;;20.10;3.33;;;19.10;99.90;;;;;;4975920;28;20196;-77
2022/10/21 12:18:35;;;;;;;14.43;3.03;;;19.10;99.90;;;;;;4972727;28;20673;-77
2022/10/21 12:21:08;;;;;;;16.40;3.25;;;19.10;99.90;;;;;;4985273;28;20210;-74
2022/10/21 12:23:39;;;;;;;14.82;3.08;;;19.00;99.90;;;;;;4975149;28;20202;-75
2022/10/21 12:26:21;;;;;;;16.13;3.50;;;19.10;99.90;;;;;;4983052;28;20196;-78
2022/10/21 12:29:00;;;;;;;7.32;2.75;;;19.10;99.90;;;;;;4975884;28;20199;-74
2022/10/21 12:31:36;;;;;;;13.15;3.13;;;19.10;99.90;;;;;;4978171;28;20230;-76
2022/10/21 12:34:11;;;;;;;15.50;3.25;;;19.10;99.90;;;;;;4989181;28;20261;-74
2022/10/21 12:36:44;;;;;;;16.08;3.05;;;19.00;99.90;;;;;;4976882;28;20597;-76
2022/10/21 12:39:40;;;;;;;15.25;2.97;;;19.00;99.90;;;;;;4991532;28;20561;-76
2022/10/21 12:42:17;;;;;;;14.20;3.28;;;19.00;99.90;;;;;;4974244;28;20240;-73
2022/10/21 12:44:49;;;;;;;12.82;3.08;;;19.00;99.90;;;;;;4990388;28;20567;-74
2022/10/21 12:47:30;;;;;;;14.82;3.08;;;18.90;99.90;;;;;;4994573;28;20195;-74
2022/10/21 12:50:19;;;;;;;15.18;3.20;;;18.90;99.90;;;;;;4985711;28;20660;-74
2022/10/21 12:53:07;;;;;;;15.32;3.33;;;18.90;99.90;;;;;;4981961;28;20243;-78
2022/10/21 12:55:41;;;;;;;9.85;2.72;;;18.90;99.90;;;;;;4967056;28;20207;-77
2022/10/21 12:58:27;;;;;;;18.02;3.22;;;18.80;99.90;;;;;;4985001;28;20274;-74
2022/10/21 13:01:01;;;;;;;16.45;3.15;;;18.80;99.90;;;;;;4977217;28;20204;-74
2022/10/21 13:03:54;;;;;;;10.32;2.80;;;18.80;99.90;;;;;;4973389;28;20216;-75
2022/10/21 13:06:52;;;;;;;11.18;3.05;;;18.70;99.90;;;;;;4977374;28;20220;-73
2022/10/21 13:09:38;;;;;;;16.30;3.00;;;18.70;99.90;;;;;;4970502;28;20204;-76
2022/10/21 13:12:30;;;;;;;14.18;2.90;;;18.70;99.90;;;;;;4976767;28;20675;-77
2022/10/21 13:15:23;;;;;;;10.35;2.90;;;18.70;99.90;;;;;;4978056;28;20659;-76
2022/10/21 13:17:56;;;;;;;13.13;2.78;;;18.70;99.90;;;;;;4977778;28;20211;-76
2022/10/21 13:20:48;;;;;;;10.60;2.60;;;18.70;99.90;;;;;;4975974;28;20196;-76
2022/10/21 13:23:34;;;;;;;11.70;2.67;;;18.70;99.90;;;;;;4960498;28;20235;-76